createdAt,value
2019-02-05T00:00:12.910Z,18.33
2019-02-05T00:02:17.209Z,24.50
2019-02-05T00:04:21.274Z,18.87
2019-02-05T00:06:25.295Z,19.90
2019-02-05T00:08:31.469Z,19.57
2019-02-05T00:10:35.420Z,19.87
2019-02-05T00:12:39.364Z,18.90
2019-02-05T00:14:43.496Z,19.10
2019-02-05T00:16:49.332Z,22.03
2019-02-05T00:18:53.423Z,21.40
2019-02-05T00:20:57.511Z,22.00
2019-02-05T00:23:01.426Z,21.93
2019-02-05T00:25:05.772Z,20.17
2019-02-05T00:27:12.633Z,19.63
2019-02-05T00:29:19.627Z,18.03
2019-02-05T00:31:23.710Z,15.17
2019-02-05T00:33:27.815Z,19.43
2019-02-05T00:35:31.853Z,17.40
2019-02-05T00:37:36.415Z,19.43
2019-02-05T00:39:42.074Z,14.10
2019-02-05T00:41:46.030Z,15.33
2019-02-05T00:43:52.933Z,17.50
2019-02-05T00:45:57.014Z,20.80
2019-02-05T00:48:01.081Z,18.63
2019-02-05T00:50:06.390Z,16.23
2019-02-05T00:52:10.383Z,19.30
2019-02-05T00:54:14.382Z,16.80
2019-02-05T00:56:18.442Z,18.57
2019-02-05T00:58:25.354Z,16.80
2019-02-05T01:00:33.427Z,21.57
2019-02-05T01:02:37.515Z,21.80
2019-02-05T01:04:43.187Z,19.03
2019-02-05T01:06:47.535Z,23.40
2019-02-05T01:08:51.449Z,18.93
2019-02-05T01:10:55.380Z,19.07
2019-02-05T01:12:59.314Z,19.90
2019-02-05T01:15:03.765Z,17.30
2019-02-05T01:17:07.938Z,21.40
2019-02-05T01:19:11.944Z,22.83
2019-02-05T01:21:16.015Z,18.83
2019-02-05T01:23:21.488Z,15.90
2019-02-05T01:25:25.658Z,19.30
2019-02-05T01:27:29.918Z,24.17
2019-02-05T01:29:33.928Z,19.57
2019-02-05T01:31:39.027Z,17.97
2019-02-05T01:33:43.124Z,15.87
2019-02-05T01:35:47.277Z,19.40
2019-02-05T01:37:51.426Z,19.80
2019-02-05T01:39:55.881Z,19.67
2019-02-05T01:41:59.750Z,17.90
2019-02-05T01:44:03.840Z,19.33
2019-02-05T01:46:07.844Z,19.70
2019-02-05T01:48:15.281Z,16.53
2019-02-05T01:50:26.705Z,18.27
2019-02-05T01:52:30.830Z,18.73
2019-02-05T01:54:34.744Z,17.60
2019-02-05T01:56:40.750Z,16.23
2019-02-05T01:58:44.436Z,17.43
2019-02-05T02:00:48.831Z,14.03
2019-02-05T02:02:52.757Z,18.17
2019-02-05T02:04:56.529Z,17.93
2019-02-05T02:07:00.469Z,18.80
2019-02-05T02:09:07.930Z,17.23
2019-02-05T02:11:11.966Z,20.43
2019-02-05T02:13:18.837Z,17.93
2019-02-05T02:15:22.907Z,14.90
2019-02-05T02:17:26.827Z,17.23
2019-02-05T02:19:30.949Z,18.13
2019-02-05T02:21:36.540Z,18.67
2019-02-05T02:23:40.720Z,17.30
2019-02-05T02:25:47.314Z,16.27
2019-02-05T02:27:51.617Z,20.73
2019-02-05T02:29:55.399Z,19.73
2019-02-05T02:31:59.255Z,17.10
2019-02-05T02:34:03.404Z,19.70
2019-02-05T02:36:07.368Z,16.10
2019-02-05T02:38:11.422Z,16.30
2019-02-05T02:40:15.685Z,19.70
2019-02-05T02:42:20.699Z,21.90
2019-02-05T02:44:24.794Z,19.90
2019-02-05T02:46:28.790Z,21.83
2019-02-05T02:48:33.797Z,17.70
2019-02-05T02:50:37.844Z,20.67
2019-02-05T02:52:41.874Z,19.13
2019-02-05T02:54:45.724Z,23.00
2019-02-05T02:56:49.747Z,20.27
2019-02-05T02:58:53.745Z,18.93
2019-02-05T03:00:58.667Z,16.80
2019-02-05T03:03:03.796Z,20.93
2019-02-05T03:05:10.476Z,19.97
2019-02-05T03:07:14.405Z,20.53
2019-02-05T03:09:18.494Z,19.23
2019-02-05T03:11:22.414Z,19.57
2019-02-05T03:13:26.405Z,23.57
2019-02-05T03:15:30.536Z,24.60
2019-02-05T03:17:34.672Z,18.90
2019-02-05T03:19:38.702Z,24.63
2019-02-05T03:21:42.694Z,16.90
2019-02-05T03:23:46.689Z,23.13
2019-02-05T03:25:50.658Z,24.60
2019-02-05T03:27:54.739Z,24.60
2019-02-05T03:29:59.783Z,25.03
2019-02-05T03:32:06.045Z,24.80
2019-02-05T03:34:10.011Z,23.37
2019-02-05T03:36:14.009Z,23.23
2019-02-05T03:38:19.125Z,27.57
2019-02-05T03:41:09.044Z,23.67
2019-02-05T03:43:13.013Z,22.67
2019-02-05T03:45:16.975Z,26.97
2019-02-05T03:47:21.061Z,26.23
2019-02-05T03:49:24.978Z,24.00
2019-02-05T03:52:08.682Z,24.83
2019-02-05T03:54:44.534Z,26.40
2019-02-05T03:56:59.451Z,23.30
2019-02-05T03:59:32.706Z,24.30
2019-02-05T04:02:35.930Z,29.17
2019-02-05T04:05:11.640Z,27.07
2019-02-05T04:07:51.225Z,25.07
2019-02-05T04:10:50.466Z,25.80
2019-02-05T04:13:38.995Z,24.63
2019-02-05T04:15:57.878Z,29.53
2019-02-05T04:18:21.820Z,28.63
2019-02-05T04:21:15.946Z,27.87
2019-02-05T04:24:03.830Z,29.13
2019-02-05T04:26:26.855Z,28.70
2019-02-05T04:29:14.842Z,29.93
2019-02-05T04:31:45.707Z,30.80
2019-02-05T04:34:20.427Z,28.50
2019-02-05T04:37:03.181Z,28.30
2019-02-05T04:39:47.714Z,30.03
2019-02-05T04:42:15.575Z,29.90
2019-02-05T04:45:04.271Z,26.73
2019-02-05T04:47:31.248Z,24.43
2019-02-05T04:50:15.004Z,24.43
2019-02-05T04:53:04.478Z,34.97
2019-02-05T04:55:39.449Z,29.50
2019-02-05T04:58:31.408Z,25.77
2019-02-05T05:01:05.280Z,30.33
2019-02-05T05:03:42.086Z,29.33
2019-02-05T05:06:12.847Z,32.87
2019-02-05T05:08:58.531Z,32.57
2019-02-05T05:11:02.373Z,33.07
2019-02-05T05:13:06.595Z,31.20
2019-02-05T05:15:12.948Z,37.47
2019-02-05T05:17:16.763Z,33.20
2019-02-05T05:19:20.708Z,32.77
2019-02-05T05:21:24.777Z,36.73
2019-02-05T05:23:29.173Z,36.80
2019-02-05T05:25:33.458Z,30.33
2019-02-05T05:27:37.265Z,30.03
2019-02-05T05:29:41.185Z,35.67
2019-02-05T05:31:45.190Z,25.63
2019-02-05T05:33:49.157Z,36.57
2019-02-05T05:35:53.283Z,32.60
2019-02-05T05:37:57.583Z,35.30
2019-02-05T05:40:03.358Z,34.87
2019-02-05T05:42:07.554Z,34.30
2019-02-05T05:44:11.715Z,35.33
2019-02-05T05:46:15.850Z,32.33
2019-02-05T05:48:19.754Z,31.03
2019-02-05T05:50:23.670Z,31.33
2019-02-05T05:52:28.244Z,36.13
2019-02-05T05:54:33.673Z,37.97
2019-02-05T05:56:39.771Z,33.30
2019-02-05T05:58:44.436Z,31.13
2019-02-05T06:00:48.377Z,33.33
2019-02-05T06:02:52.619Z,33.97
2019-02-05T06:04:56.743Z,33.27
2019-02-05T06:07:00.723Z,39.13
2019-02-05T06:09:07.987Z,33.90
2019-02-05T06:11:12.036Z,34.23
2019-02-05T06:13:16.428Z,35.83
2019-02-05T06:15:20.480Z,36.60
2019-02-05T06:17:24.316Z,34.27
2019-02-05T06:19:28.353Z,33.53
2019-02-05T06:21:32.267Z,35.73
2019-02-05T06:23:36.935Z,32.93
2019-02-05T06:25:40.887Z,30.70
2019-02-05T06:27:44.769Z,34.17
2019-02-05T06:29:48.850Z,32.60
2019-02-05T06:31:53.191Z,35.60
2019-02-05T06:33:57.303Z,32.77
2019-02-05T06:36:01.229Z,34.53
2019-02-05T06:38:05.243Z,38.40
2019-02-05T06:40:10.121Z,36.63
2019-02-05T06:42:14.021Z,45.60
2019-02-05T06:44:17.889Z,33.83
2019-02-05T06:46:21.907Z,38.40
2019-02-05T06:48:25.940Z,39.93
2019-02-05T06:50:29.927Z,38.57
2019-02-05T06:52:33.909Z,26.47
2019-02-05T06:54:38.020Z,31.83
2019-02-05T06:56:42.557Z,30.40
2019-02-05T06:58:46.857Z,36.00
2019-02-05T07:00:52.857Z,36.17
2019-02-05T07:02:56.777Z,38.50
2019-02-05T07:05:03.388Z,33.53
2019-02-05T07:07:07.299Z,32.10
2019-02-05T07:09:11.361Z,38.80
2019-02-05T07:11:15.538Z,31.23
2019-02-05T07:13:19.452Z,31.97
2019-02-05T07:15:23.488Z,31.17
2019-02-05T07:17:27.465Z,29.57
2019-02-05T07:19:31.635Z,38.63
2019-02-05T07:21:35.764Z,32.33
2019-02-05T07:23:40.187Z,31.70
2019-02-05T07:25:45.204Z,41.33
2019-02-05T07:27:49.245Z,31.50
2019-02-05T07:29:54.342Z,35.90
2019-02-05T07:31:58.267Z,33.20
2019-02-05T07:34:02.687Z,44.37
2019-02-05T07:36:07.663Z,30.10
2019-02-05T07:38:11.732Z,36.70
2019-02-05T07:40:16.901Z,33.03
2019-02-05T07:42:21.066Z,40.10
2019-02-05T07:44:25.115Z,34.70
2019-02-05T07:46:30.792Z,28.37
2019-02-05T07:48:34.648Z,34.67
2019-02-05T07:50:38.581Z,29.10
2019-02-05T07:52:44.917Z,33.83
2019-02-05T07:54:49.017Z,42.33
2019-02-05T07:56:54.818Z,35.90
2019-02-05T07:59:09.630Z,36.37
2019-02-05T08:01:04.528Z,38.67
2019-02-05T08:03:08.812Z,37.07
2019-02-05T08:05:15.937Z,40.77
2019-02-05T08:07:19.987Z,38.43
2019-02-05T08:09:23.893Z,39.17
2019-02-05T08:11:27.884Z,35.90
2019-02-05T08:13:32.192Z,40.87
2019-02-05T08:15:36.204Z,40.63
2019-02-05T08:17:40.211Z,44.97
2019-02-05T08:19:44.215Z,33.77
2019-02-05T08:21:48.553Z,40.03
2019-02-05T08:23:52.843Z,40.13
2019-02-05T08:25:56.915Z,42.13
2019-02-05T08:28:01.539Z,38.33
2019-02-05T08:30:09.930Z,42.77
2019-02-05T08:32:14.264Z,38.33
2019-02-05T08:34:18.145Z,39.40
2019-02-05T08:36:22.271Z,42.23
2019-02-05T08:38:26.108Z,44.83
2019-02-05T08:40:30.166Z,38.50
2019-02-05T08:42:34.124Z,34.23
2019-02-05T08:44:38.195Z,45.93
2019-02-05T08:46:42.022Z,39.23
2019-02-05T08:48:46.081Z,41.23
2019-02-05T08:50:52.281Z,36.90
2019-02-05T08:52:57.201Z,41.90
2019-02-05T08:55:02.639Z,40.67
2019-02-05T08:57:06.563Z,41.90
2019-02-05T08:59:10.433Z,40.77
2019-02-05T09:01:14.710Z,34.60
2019-02-05T09:03:18.881Z,38.30
2019-02-05T09:05:22.860Z,33.03
2019-02-05T09:07:26.826Z,32.10
2019-02-05T09:09:31.386Z,38.63
2019-02-05T09:11:35.619Z,37.80
2019-02-05T09:13:39.611Z,37.57
2019-02-05T09:15:43.549Z,34.07
2019-02-05T09:17:47.583Z,36.80
2019-02-05T09:19:51.588Z,35.10
2019-02-05T09:21:55.650Z,39.33
2019-02-05T09:23:59.512Z,32.87
2019-02-05T09:26:03.589Z,36.77
2019-02-05T09:28:07.607Z,32.80
2019-02-05T09:30:17.459Z,38.40
2019-02-05T09:32:22.904Z,38.50
2019-02-05T09:34:26.711Z,41.20
2019-02-05T09:36:30.799Z,35.67
2019-02-05T09:38:34.655Z,37.43
2019-02-05T09:40:38.796Z,34.47
2019-02-05T09:42:42.679Z,34.33
2019-02-05T09:44:46.745Z,38.53
2019-02-05T09:46:50.797Z,41.30
2019-02-05T09:48:54.736Z,39.80
2019-02-05T09:50:59.022Z,34.93
2019-02-05T09:53:04.029Z,40.90
2019-02-05T09:55:08.818Z,38.47
2019-02-05T09:57:13.033Z,37.40
2019-02-05T09:59:17.553Z,44.67
2019-02-05T10:01:21.846Z,36.87
2019-02-05T10:03:25.868Z,36.80
2019-02-05T10:05:30.471Z,34.53
2019-02-05T10:07:35.568Z,37.33
2019-02-05T10:09:42.440Z,32.77
2019-02-05T10:11:47.838Z,35.97
2019-02-05T10:13:51.874Z,39.60
2019-02-05T10:15:55.776Z,40.07
2019-02-05T10:17:59.725Z,36.50
2019-02-05T10:20:03.932Z,39.07
2019-02-05T10:22:09.324Z,41.57
2019-02-05T10:24:13.343Z,36.80
2019-02-05T10:26:17.599Z,37.97
2019-02-05T10:28:21.727Z,38.27
2019-02-05T10:30:35.273Z,36.33
2019-02-05T10:32:39.699Z,39.13
2019-02-05T10:34:43.572Z,35.77
2019-02-05T10:36:47.650Z,40.97
2019-02-05T10:38:51.671Z,43.80
2019-02-05T10:40:55.658Z,39.10
2019-02-05T10:43:00.407Z,37.13
2019-02-05T10:45:05.640Z,41.60
2019-02-05T10:47:09.559Z,36.97
2019-02-05T10:49:14.075Z,34.27
2019-02-05T10:51:17.975Z,35.57
2019-02-05T10:53:21.960Z,43.13
2019-02-05T10:55:25.974Z,36.30
2019-02-05T10:57:29.824Z,42.17
2019-02-05T10:59:35.710Z,36.07
2019-02-05T11:01:40.839Z,39.27
2019-02-05T11:03:44.708Z,36.63
2019-02-05T11:05:48.897Z,41.10
2019-02-05T11:07:53.054Z,34.97
2019-02-05T11:09:57.020Z,34.63
2019-02-05T11:12:03.222Z,37.83
2019-02-05T11:14:09.590Z,34.33
2019-02-05T11:16:13.478Z,39.37
2019-02-05T11:18:17.765Z,36.93
2019-02-05T11:20:23.494Z,35.37
2019-02-05T11:22:30.224Z,30.43
2019-02-05T11:24:38.331Z,38.83
2019-02-05T11:26:42.307Z,34.70
2019-02-05T11:28:46.343Z,39.13
2019-02-05T11:30:50.370Z,31.70
2019-02-05T11:32:54.496Z,33.33
2019-02-05T11:35:01.173Z,32.67
2019-02-05T11:37:06.222Z,36.17
2019-02-05T11:39:15.113Z,31.63
2019-02-05T11:41:19.008Z,41.50
2019-02-05T11:43:22.980Z,34.53
2019-02-05T11:45:26.870Z,32.93
2019-02-05T11:47:30.946Z,32.70
2019-02-05T11:49:34.872Z,30.83
2019-02-05T11:51:38.946Z,33.57
2019-02-05T11:53:42.934Z,36.60
2019-02-05T11:55:46.880Z,33.27
2019-02-05T11:57:50.806Z,31.17
2019-02-05T11:59:54.648Z,34.97
2019-02-05T12:01:59.754Z,31.47
2019-02-05T12:04:04.554Z,32.40
2019-02-05T12:06:08.574Z,36.53
2019-02-05T12:08:14.248Z,35.73
2019-02-05T12:10:20.431Z,36.00
2019-02-05T12:12:26.360Z,34.80
2019-02-05T12:14:39.568Z,37.03
2019-02-05T12:16:43.536Z,32.13
2019-02-05T12:18:47.438Z,33.70
2019-02-05T12:20:51.549Z,36.10
2019-02-05T12:22:55.445Z,35.80
2019-02-05T12:24:59.671Z,35.60
2019-02-05T12:27:03.621Z,37.63
2019-02-05T12:29:08.683Z,32.03
2019-02-05T12:31:12.719Z,34.43
2019-02-05T12:33:16.786Z,33.70
2019-02-05T12:35:23.768Z,39.97
2019-02-05T12:37:30.678Z,40.87
2019-02-05T12:39:34.677Z,33.27
2019-02-05T12:41:41.227Z,36.60
2019-02-05T12:43:45.142Z,41.47
2019-02-05T12:45:50.345Z,33.20
2019-02-05T12:47:54.960Z,36.33
2019-02-05T12:50:00.764Z,37.47
2019-02-05T12:52:04.640Z,32.73
2019-02-05T12:54:08.758Z,37.40
2019-02-05T12:56:12.881Z,35.57
2019-02-05T12:58:17.341Z,33.37
2019-02-05T13:00:28.545Z,31.87
2019-02-05T13:02:32.622Z,31.63
2019-02-05T13:04:36.966Z,32.33
2019-02-05T13:06:40.980Z,35.23
2019-02-05T13:08:46.333Z,34.13
2019-02-05T13:10:53.005Z,31.43
2019-02-05T13:12:56.923Z,32.77
2019-02-05T13:15:00.914Z,38.53
2019-02-05T13:17:05.042Z,38.63
2019-02-05T13:19:09.104Z,39.30
2019-02-05T13:21:13.184Z,32.03
2019-02-05T13:23:17.115Z,34.47
2019-02-05T13:25:22.804Z,37.87
2019-02-05T13:27:26.798Z,32.27
2019-02-05T13:29:30.761Z,33.93
2019-02-05T13:31:34.766Z,38.33
2019-02-05T13:33:38.793Z,33.33
2019-02-05T13:35:44.362Z,32.50
2019-02-05T13:37:50.214Z,32.37
2019-02-05T13:39:54.839Z,29.93
2019-02-05T13:41:59.308Z,33.03
2019-02-05T13:44:03.551Z,36.60
2019-02-05T13:46:07.933Z,30.40
2019-02-05T13:48:11.912Z,35.47
2019-02-05T13:50:32.122Z,31.53
2019-02-05T13:52:26.694Z,33.13
2019-02-05T13:54:30.725Z,34.07
2019-02-05T13:56:34.683Z,31.53
2019-02-05T13:58:39.024Z,32.97
2019-02-05T14:00:50.867Z,35.00
2019-02-05T14:02:54.905Z,31.67
2019-02-05T14:05:00.426Z,32.83
2019-02-05T14:07:04.618Z,37.23
2019-02-05T14:09:12.872Z,33.10
2019-02-05T14:11:16.709Z,34.13
2019-02-05T14:13:20.723Z,34.93
2019-02-05T14:15:26.719Z,31.43
2019-02-05T14:17:30.566Z,32.27
2019-02-05T14:19:35.644Z,32.20
2019-02-05T14:21:39.659Z,30.10
2019-02-05T14:23:43.721Z,35.07
2019-02-05T14:25:47.961Z,34.23
2019-02-05T14:27:52.008Z,34.17
2019-02-05T14:29:56.071Z,35.87
2019-02-05T14:32:00.093Z,34.60
2019-02-05T14:34:04.495Z,33.37
2019-02-05T14:36:09.920Z,31.77
2019-02-05T14:38:14.004Z,31.60
2019-02-05T14:40:18.760Z,33.17
2019-02-05T14:42:22.787Z,31.57
2019-02-05T14:44:30.876Z,33.33
2019-02-05T14:46:34.929Z,28.87
2019-02-05T14:48:40.191Z,27.37
2019-02-05T14:50:45.454Z,29.17
2019-02-05T14:52:50.670Z,30.43
2019-02-05T14:54:57.648Z,34.70
2019-02-05T14:57:01.606Z,30.17
2019-02-05T14:59:06.668Z,32.40
2019-02-05T15:01:10.694Z,32.40
2019-02-05T15:03:15.197Z,30.27
2019-02-05T15:05:19.360Z,33.47
2019-02-05T15:07:23.294Z,33.53
2019-02-05T15:09:30.966Z,29.73
2019-02-05T15:11:36.113Z,30.57
2019-02-05T15:13:40.051Z,26.33
2019-02-05T15:15:44.077Z,31.33
2019-02-05T15:17:48.103Z,29.10
2019-02-05T15:19:52.068Z,35.03
2019-02-05T15:21:55.918Z,34.37
2019-02-05T15:23:59.749Z,32.90
2019-02-05T15:26:03.808Z,36.90
2019-02-05T15:28:07.748Z,32.97
2019-02-05T15:30:24.253Z,34.50
2019-02-05T15:32:47.325Z,30.73
2019-02-05T15:34:53.309Z,34.53
2019-02-05T15:36:58.614Z,29.90
2019-02-05T15:39:04.047Z,32.50
2019-02-05T15:41:08.030Z,35.83
2019-02-05T15:43:12.408Z,35.27
2019-02-05T15:45:18.141Z,32.67
2019-02-05T15:47:22.741Z,29.37
2019-02-05T15:49:27.225Z,32.17
2019-02-05T15:51:31.271Z,36.50
2019-02-05T15:53:35.160Z,29.77
2019-02-05T15:55:39.353Z,29.70
2019-02-05T15:57:43.518Z,33.17
2019-02-05T15:59:49.051Z,29.80
2019-02-05T16:02:05.676Z,31.73
2019-02-05T16:03:59.419Z,28.10
2019-02-05T16:06:03.666Z,30.20
2019-02-05T16:08:08.730Z,31.53
2019-02-05T16:10:14.189Z,35.13
2019-02-05T16:12:18.914Z,32.60
2019-02-05T16:14:23.302Z,32.03
2019-02-05T16:16:28.181Z,27.43
2019-02-05T16:18:32.308Z,33.03
2019-02-05T16:20:36.787Z,31.40
2019-02-05T16:22:40.890Z,37.33
2019-02-05T16:24:47.887Z,32.87
2019-02-05T16:26:53.107Z,32.53
2019-02-05T16:28:57.051Z,40.03
2019-02-05T16:31:01.089Z,21.50
2019-02-05T16:33:05.101Z,32.87
2019-02-05T16:35:12.964Z,35.67
2019-02-05T16:37:16.881Z,30.93
2019-02-05T16:39:22.393Z,27.60
2019-02-05T16:41:26.358Z,34.40
2019-02-05T16:43:30.356Z,29.27
2019-02-05T16:45:34.398Z,29.73
2019-02-05T16:47:38.406Z,34.30
2019-02-05T16:49:44.006Z,33.33
2019-02-05T16:51:48.024Z,28.73
2019-02-05T16:53:51.973Z,35.10
2019-02-05T16:55:56.058Z,36.77
2019-02-05T16:58:00.587Z,34.90
2019-02-05T17:00:07.422Z,35.00
2019-02-05T17:02:11.462Z,33.63
2019-02-05T17:04:15.731Z,30.53
2019-02-05T17:06:19.751Z,34.20
2019-02-05T17:08:24.436Z,37.30
2019-02-05T17:10:28.500Z,29.23
2019-02-05T17:12:32.603Z,25.17
2019-02-05T17:14:37.217Z,36.60
2019-02-05T17:16:41.418Z,30.67
2019-02-05T17:18:45.703Z,42.60
2019-02-05T17:20:50.798Z,37.20
2019-02-05T17:22:54.810Z,35.33
2019-02-05T17:25:01.481Z,35.73
2019-02-05T17:27:08.096Z,30.70
2019-02-05T17:29:11.869Z,37.97
2019-02-05T17:31:16.064Z,42.10
2019-02-05T17:33:22.219Z,36.97
2019-02-05T17:35:26.256Z,37.60
2019-02-05T17:37:31.391Z,37.13
2019-02-05T17:39:35.551Z,34.53
2019-02-05T17:41:40.631Z,35.67
2019-02-05T17:43:44.782Z,40.80
2019-02-05T17:45:48.946Z,40.03
2019-02-05T17:47:54.755Z,37.03
2019-02-05T17:50:00.062Z,40.27
2019-02-05T17:52:04.755Z,38.10
2019-02-05T17:54:09.018Z,38.67
2019-02-05T17:56:14.994Z,34.90
2019-02-05T17:58:19.605Z,34.63
2019-02-05T18:00:39.475Z,40.87
2019-02-05T18:02:51.428Z,27.73
2019-02-05T18:04:49.513Z,37.27
2019-02-05T18:06:53.730Z,35.63
2019-02-05T18:08:57.764Z,33.37
2019-02-05T18:11:03.444Z,31.77
2019-02-05T18:13:08.205Z,35.80
2019-02-05T18:15:19.578Z,37.73
2019-02-05T18:17:23.609Z,44.93
2019-02-05T18:19:29.557Z,36.10
2019-02-05T18:21:34.052Z,37.80
2019-02-05T18:23:38.302Z,41.87
2019-02-05T18:25:43.131Z,29.73
2019-02-05T18:27:49.381Z,30.30
2019-02-05T18:29:54.051Z,34.17
2019-02-05T18:31:58.299Z,34.53
2019-02-05T18:34:02.855Z,37.90
2019-02-05T18:36:07.137Z,37.33
2019-02-05T18:38:13.298Z,39.47
2019-02-05T18:40:18.407Z,40.53
2019-02-05T18:42:22.451Z,40.23
2019-02-05T18:44:26.851Z,37.30
2019-02-05T18:46:31.034Z,37.37
2019-02-05T18:48:36.456Z,37.83
2019-02-05T18:50:40.721Z,36.70
2019-02-05T18:52:45.916Z,40.90
2019-02-05T18:54:50.007Z,37.37
2019-02-05T18:56:56.243Z,37.57
2019-02-05T18:59:00.196Z,38.70
2019-02-05T19:01:04.973Z,35.97
2019-02-05T19:03:15.683Z,34.53
2019-02-05T19:05:14.883Z,38.43
2019-02-05T19:07:19.165Z,40.47
2019-02-05T19:09:23.257Z,41.47
2019-02-05T19:11:27.562Z,38.93
2019-02-05T19:13:32.621Z,33.50
2019-02-05T19:15:37.413Z,44.00
2019-02-05T19:17:41.871Z,44.77
2019-02-05T19:19:46.896Z,34.77
2019-02-05T19:21:52.631Z,39.57
2019-02-05T19:24:04.680Z,37.43
2019-02-05T19:26:19.463Z,39.13
2019-02-05T19:28:32.563Z,37.87
2019-02-05T19:30:38.699Z,33.73
2019-02-05T19:32:42.934Z,43.53
2019-02-05T19:34:47.921Z,39.63
2019-02-05T19:36:52.102Z,39.73
2019-02-05T19:38:56.540Z,40.57
2019-02-05T19:41:00.842Z,39.53
2019-02-05T19:43:05.102Z,38.13
2019-02-05T19:45:21.367Z,27.77
2019-02-05T19:47:29.940Z,41.13
2019-02-05T19:49:38.740Z,40.63
2019-02-05T19:51:42.863Z,41.10
2019-02-05T19:53:47.193Z,49.03
2019-02-05T19:55:51.462Z,45.67
2019-02-05T19:57:59.231Z,43.20
2019-02-05T20:00:03.286Z,43.00
2019-02-05T20:02:09.651Z,45.80
2019-02-05T20:04:13.621Z,44.57
2019-02-05T20:06:17.978Z,40.00
2019-02-05T20:08:21.853Z,39.53
2019-02-05T20:10:25.935Z,43.50
2019-02-05T20:12:29.919Z,35.50
2019-02-05T20:14:34.246Z,45.13
2019-02-05T20:16:40.109Z,41.43
2019-02-05T20:18:46.373Z,44.27
2019-02-05T20:20:52.909Z,43.73
2019-02-05T20:22:56.824Z,42.17
2019-02-05T20:25:01.971Z,43.80
2019-02-05T20:27:06.141Z,39.07
2019-02-05T20:29:13.318Z,42.30
2019-02-05T20:31:17.309Z,42.67
2019-02-05T20:33:21.379Z,43.17
2019-02-05T20:35:25.375Z,45.90
2019-02-05T20:37:31.281Z,51.67
2019-02-05T20:39:35.395Z,44.53
2019-02-05T20:41:39.422Z,44.10
2019-02-05T20:43:44.545Z,43.90
2019-02-05T20:45:49.009Z,41.30
2019-02-05T20:48:17.106Z,42.03
2019-02-05T20:50:37.804Z,41.43
2019-02-05T20:52:50.557Z,45.00
2019-02-05T20:55:01.724Z,46.13
2019-02-05T20:59:32.278Z,44.73
2019-02-05T21:01:32.137Z,44.60
2019-02-05T21:03:36.139Z,42.33
2019-02-05T21:05:43.012Z,41.47
2019-02-05T21:07:47.049Z,44.37
2019-02-05T21:09:51.319Z,48.97
2019-02-05T21:11:55.325Z,44.43
2019-02-05T21:13:59.300Z,47.50
2019-02-05T21:16:03.535Z,44.23
2019-02-05T21:18:10.028Z,44.00
2019-02-05T21:20:28.414Z,49.87
2019-02-05T21:22:22.386Z,49.33
2019-02-05T21:24:26.360Z,45.80
2019-02-05T21:26:30.413Z,44.73
2019-02-05T21:28:34.513Z,43.30
2019-02-05T21:30:39.002Z,46.00
2019-02-05T21:32:43.018Z,42.67
2019-02-05T21:34:47.041Z,46.73
2019-02-05T21:36:51.210Z,45.33
2019-02-05T21:38:55.336Z,50.73
2019-02-05T21:40:59.565Z,47.10
2019-02-05T21:43:03.755Z,55.40
2019-02-05T21:45:10.327Z,39.33
2019-02-05T21:47:14.245Z,38.97
2019-02-05T21:49:18.383Z,39.63
2019-02-05T21:51:25.103Z,43.27
2019-02-05T21:53:29.027Z,44.30
2019-02-05T21:55:33.068Z,47.50
2019-02-05T21:57:37.292Z,36.63
2019-02-05T21:59:43.103Z,45.13
2019-02-05T22:01:47.171Z,44.73
2019-02-05T22:03:51.174Z,42.23
2019-02-05T22:05:55.109Z,44.17
2019-02-05T22:07:59.026Z,51.73
2019-02-05T22:10:02.972Z,49.03
2019-02-05T22:12:07.475Z,44.93
2019-02-05T22:14:13.568Z,48.80
2019-02-05T22:16:19.741Z,42.83
2019-02-05T22:18:26.422Z,47.17
2019-02-05T22:20:30.518Z,50.97
2019-02-05T22:22:34.469Z,50.53
2019-02-05T22:24:38.617Z,46.53
2019-02-05T22:26:42.851Z,46.30
2019-02-05T22:28:46.837Z,44.20
2019-02-05T22:30:55.403Z,45.33
2019-02-05T22:32:56.350Z,50.70
2019-02-05T22:35:01.567Z,52.23
2019-02-05T22:37:05.482Z,45.40
2019-02-05T22:39:10.272Z,45.30
2019-02-05T22:41:14.304Z,50.23
2019-02-05T22:43:18.131Z,46.70
2019-02-05T22:45:22.925Z,55.73
2019-02-05T22:47:28.986Z,57.83
2019-02-05T22:49:32.865Z,51.43
2019-02-05T22:51:37.112Z,49.67
2019-02-05T22:53:41.037Z,55.13
2019-02-05T22:55:44.959Z,55.47
2019-02-05T22:57:51.826Z,50.80
2019-02-05T22:59:56.950Z,43.53
2019-02-05T23:02:01.689Z,44.73
2019-02-05T23:04:30.356Z,51.53
2019-02-05T23:06:52.811Z,44.67
2019-02-05T23:08:58.603Z,44.97
2019-02-05T23:11:50.199Z,46.93
2019-02-05T23:13:54.102Z,47.93
2019-02-05T23:15:59.004Z,57.80
2019-02-05T23:18:03.171Z,51.73
2019-02-05T23:20:09.494Z,48.07
2019-02-05T23:22:14.266Z,47.17
2019-02-05T23:24:18.254Z,48.67
2019-02-05T23:26:26.871Z,54.37
2019-02-05T23:28:30.902Z,49.60
2019-02-05T23:30:35.726Z,50.43
2019-02-05T23:32:40.628Z,49.77
2019-02-05T23:34:44.581Z,50.70
2019-02-05T23:36:49.641Z,45.63
2019-02-05T23:38:53.777Z,47.20
2019-02-05T23:40:58.215Z,32.07
2019-02-05T23:43:02.367Z,43.67
2019-02-05T23:45:06.880Z,45.73
2019-02-05T23:47:10.930Z,43.00
2019-02-05T23:49:14.748Z,41.73
2019-02-05T23:51:20.154Z,44.63
2019-02-05T23:53:24.294Z,47.50
2019-02-05T23:55:28.293Z,43.80
2019-02-05T23:57:33.073Z,44.37
2019-02-05T23:59:37.139Z,50.90
